createdAt,value
2022-09-13T00:01:23.283Z,5.93
2022-09-13T00:03:49.700Z,6.60
2022-09-13T00:06:17.254Z,6.80
2022-09-13T00:08:43.950Z,5.07
2022-09-13T00:11:20.819Z,4.75
2022-09-13T00:13:47.231Z,5.43
2022-09-13T00:16:14.687Z,6.10
2022-09-13T00:18:41.813Z,4.22
2022-09-13T00:21:09.661Z,4.82
2022-09-13T00:23:36.661Z,3.90
2022-09-13T00:26:04.058Z,6.57
2022-09-13T00:28:30.486Z,5.55
2022-09-13T00:31:01.753Z,4.00
2022-09-13T00:33:28.016Z,4.78
2022-09-13T00:35:54.234Z,3.97
2022-09-13T00:38:20.452Z,4.80
2022-09-13T00:40:46.716Z,5.60
2022-09-13T00:43:16.764Z,6.38
2022-09-13T00:45:43.101Z,6.10
2022-09-13T00:48:15.550Z,5.50
2022-09-13T00:50:43.804Z,3.85
2022-09-13T00:53:13.109Z,5.70
2022-09-13T00:56:02.223Z,4.07
2022-09-13T00:58:41.090Z,5.35
2022-09-13T01:01:10.364Z,3.58
2022-09-13T01:03:37.312Z,4.88
2022-09-13T01:06:23.874Z,5.93
2022-09-13T01:08:53.544Z,6.50
2022-09-13T01:11:25.494Z,5.03
2022-09-13T01:13:52.025Z,4.50
2022-09-13T01:16:18.582Z,4.20
2022-09-13T01:18:44.876Z,5.13
2022-09-13T01:21:31.762Z,3.97
2022-09-13T01:24:16.733Z,6.18
2022-09-13T01:26:52.601Z,4.40
2022-09-13T01:29:27.968Z,5.13
2022-09-13T01:32:00.389Z,3.73
2022-09-13T01:34:30.589Z,5.90
2022-09-13T01:36:59.913Z,5.07
2022-09-13T01:39:33.863Z,4.85
2022-09-13T01:42:10.914Z,4.07
2022-09-13T01:44:43.319Z,4.05
2022-09-13T01:47:22.391Z,3.80
2022-09-13T01:50:07.395Z,3.45
2022-09-13T01:52:41.113Z,3.97
2022-09-13T01:55:10.185Z,4.45
2022-09-13T01:57:41.132Z,4.03
2022-09-13T02:00:15.154Z,4.45
2022-09-13T02:02:53.993Z,3.88
2022-09-13T02:05:40.981Z,3.67
2022-09-13T02:08:12.847Z,4.85
2022-09-13T02:10:41.639Z,3.72
2022-09-13T02:13:11.481Z,3.95
2022-09-13T02:15:40.812Z,4.53
2022-09-13T02:18:13.115Z,4.43
2022-09-13T02:20:42.451Z,4.15
2022-09-13T02:23:12.023Z,3.25
2022-09-13T02:25:40.582Z,4.65
2022-09-13T02:28:11.042Z,4.70
2022-09-13T02:30:40.612Z,4.60
2022-09-13T02:33:06.967Z,4.38
2022-09-13T02:35:38.566Z,4.38
2022-09-13T02:38:11.029Z,4.20
2022-09-13T02:40:43.119Z,4.60
2022-09-13T02:43:25.133Z,4.18
2022-09-13T02:45:54.950Z,3.28
2022-09-13T02:48:26.778Z,6.20
2022-09-13T02:51:01.978Z,4.30
2022-09-13T02:53:43.823Z,3.65
2022-09-13T02:56:28.584Z,4.10
2022-09-13T02:58:58.398Z,4.68
2022-09-13T03:01:24.730Z,5.35
2022-09-13T03:03:51.930Z,4.65
2022-09-13T03:06:25.500Z,4.47
2022-09-13T03:08:52.418Z,3.63
2022-09-13T03:11:18.634Z,3.63
2022-09-13T03:13:45.143Z,3.70
2022-09-13T03:16:30.359Z,3.75
2022-09-13T03:19:16.874Z,3.80
2022-09-13T03:22:01.981Z,4.18
2022-09-13T03:24:39.157Z,4.10
2022-09-13T03:27:09.648Z,4.90
2022-09-13T03:29:52.390Z,3.70
2022-09-13T03:32:24.359Z,5.90
2022-09-13T03:34:59.206Z,3.17
2022-09-13T03:37:25.494Z,3.92
2022-09-13T03:40:00.365Z,3.35
2022-09-13T03:42:41.382Z,3.60
2022-09-13T03:45:09.401Z,3.38
2022-09-13T03:47:37.129Z,3.15
2022-09-13T03:50:05.111Z,4.35
2022-09-13T03:52:31.738Z,3.95
2022-09-13T03:54:58.017Z,4.28
2022-09-13T03:57:24.273Z,3.38
2022-09-13T03:59:52.101Z,3.90
2022-09-13T04:02:19.300Z,3.20
2022-09-13T04:04:46.248Z,4.78
2022-09-13T04:07:14.386Z,3.47
2022-09-13T04:09:40.672Z,4.65
2022-09-13T04:12:08.241Z,3.35
2022-09-13T04:14:34.487Z,3.83
2022-09-13T04:17:00.734Z,4.57
2022-09-13T04:19:27.176Z,5.03
2022-09-13T04:21:54.486Z,4.40
2022-09-13T04:24:20.778Z,3.72
2022-09-13T04:26:56.533Z,4.32
2022-09-13T04:29:23.625Z,6.75
2022-09-13T04:31:50.820Z,5.18
2022-09-13T04:34:18.447Z,5.97
2022-09-13T04:36:45.465Z,3.33
2022-09-13T04:39:14.005Z,4.00
2022-09-13T04:41:40.952Z,3.75
2022-09-13T04:44:07.252Z,4.25
2022-09-13T04:46:33.511Z,4.25
2022-09-13T04:49:00.083Z,4.97
2022-09-13T04:51:27.456Z,5.00
2022-09-13T04:53:55.201Z,3.58
2022-09-13T04:56:23.062Z,5.68
2022-09-13T04:58:53.470Z,4.30
2022-09-13T05:01:20.112Z,4.35
2022-09-13T05:03:46.839Z,5.25
2022-09-13T05:06:14.434Z,4.15
2022-09-13T05:08:44.004Z,4.18
2022-09-13T05:11:10.746Z,5.22
2022-09-13T05:13:37.109Z,6.00
2022-09-13T05:16:05.268Z,6.25
2022-09-13T05:18:32.936Z,8.68
2022-09-13T05:21:00.459Z,6.30
2022-09-13T05:23:27.732Z,6.47
2022-09-13T05:25:57.857Z,6.20
2022-09-13T05:28:24.548Z,8.75
2022-09-13T05:31:14.116Z,8.55
2022-09-13T05:33:40.699Z,7.85
2022-09-13T05:36:07.443Z,5.68
2022-09-13T05:38:36.257Z,7.85
2022-09-13T05:41:03.686Z,8.18
2022-09-13T05:43:31.353Z,6.35
2022-09-13T05:46:01.827Z,6.80
2022-09-13T05:48:28.864Z,6.35
2022-09-13T05:51:19.627Z,6.68
2022-09-13T05:53:47.018Z,6.90
2022-09-13T05:56:17.548Z,5.30
2022-09-13T05:58:47.928Z,5.03
2022-09-13T06:01:16.094Z,5.70
2022-09-13T06:03:42.592Z,5.75
2022-09-13T06:06:10.497Z,6.95
2022-09-13T06:08:39.328Z,7.13
2022-09-13T06:11:10.079Z,6.35
2022-09-13T06:13:36.927Z,9.25
2022-09-13T06:16:05.017Z,6.57
2022-09-13T06:18:31.851Z,8.38
2022-09-13T06:21:02.043Z,6.43
2022-09-13T06:23:29.107Z,8.93
2022-09-13T06:26:04.644Z,6.35
2022-09-13T06:28:38.518Z,6.63
2022-09-13T06:31:14.372Z,5.18
2022-09-13T06:33:41.521Z,7.30
2022-09-13T06:36:09.613Z,4.53
2022-09-13T06:38:35.926Z,5.97
2022-09-13T06:41:08.465Z,4.43
2022-09-13T06:43:34.957Z,6.35
2022-09-13T06:46:02.169Z,8.10
2022-09-13T06:48:31.063Z,5.70
2022-09-13T06:51:01.479Z,6.35
2022-09-13T06:53:28.882Z,7.15
2022-09-13T06:56:06.233Z,5.03
2022-09-13T06:58:33.126Z,7.68
2022-09-13T07:01:12.511Z,7.40
2022-09-13T07:03:40.385Z,4.75
2022-09-13T07:06:14.193Z,7.53
2022-09-13T07:08:41.061Z,5.80
2022-09-13T07:11:07.405Z,5.57
2022-09-13T07:13:34.043Z,5.50
2022-09-13T07:16:11.342Z,7.40
2022-09-13T07:18:38.340Z,5.22
2022-09-13T07:21:09.392Z,5.63
2022-09-13T07:23:36.466Z,9.95
2022-09-13T07:26:05.630Z,5.32
2022-09-13T07:28:36.087Z,7.00
2022-09-13T07:31:21.624Z,5.72
2022-09-13T07:33:49.248Z,4.65
2022-09-13T07:36:17.402Z,5.55
2022-09-13T07:38:46.693Z,4.43
2022-09-13T07:41:14.105Z,5.43
2022-09-13T07:43:40.774Z,6.05
2022-09-13T07:46:09.181Z,6.03
2022-09-13T07:48:37.086Z,4.68
2022-09-13T07:51:08.246Z,6.28
2022-09-13T07:53:36.147Z,6.45
2022-09-13T07:56:04.219Z,5.22
2022-09-13T07:58:30.597Z,4.70
2022-09-13T08:01:00.804Z,4.93
2022-09-13T08:03:27.250Z,5.40
2022-09-13T08:05:53.812Z,5.25
2022-09-13T08:08:20.287Z,4.60
2022-09-13T08:10:49.477Z,7.38
2022-09-13T08:13:22.477Z,7.00
2022-09-13T08:16:00.754Z,6.78
2022-09-13T08:18:27.103Z,5.25
2022-09-13T08:21:05.037Z,5.30
2022-09-13T08:23:34.654Z,6.28
2022-09-13T08:26:03.078Z,5.57
2022-09-13T08:28:30.156Z,6.75
2022-09-13T08:30:56.476Z,6.25
2022-09-13T08:33:23.058Z,6.43
2022-09-13T08:35:50.706Z,6.47
2022-09-13T08:38:17.011Z,4.85
2022-09-13T08:40:47.640Z,4.05
2022-09-13T08:43:36.855Z,6.60
2022-09-13T08:49:47.200Z,6.65
2022-09-13T08:52:27.156Z,6.22
2022-09-13T08:54:58.281Z,3.35
2022-09-13T08:57:51.512Z,5.75
2022-09-13T09:00:23.494Z,3.28
2022-09-13T09:02:56.021Z,6.28
2022-09-13T09:05:24.134Z,5.28
2022-09-13T09:07:53.666Z,7.05
2022-09-13T09:10:29.280Z,6.18
2022-09-13T09:12:57.600Z,6.97
2022-09-13T09:15:25.251Z,5.55
2022-09-13T09:17:51.675Z,5.75
2022-09-13T09:20:21.633Z,4.57
2022-09-13T09:25:57.578Z,4.60
2022-09-13T09:28:25.276Z,5.13
2022-09-13T09:31:07.504Z,6.60
2022-09-13T09:33:52.674Z,8.57
2022-09-13T09:36:37.728Z,3.60
2022-09-13T09:39:04.632Z,3.50
2022-09-13T09:41:32.599Z,4.13
2022-09-13T09:44:01.286Z,6.35
2022-09-13T09:46:30.307Z,4.03
2022-09-13T09:49:01.339Z,5.93
2022-09-13T09:51:28.190Z,4.00
2022-09-13T09:54:02.293Z,3.90
2022-09-13T09:56:32.842Z,10.15
2022-09-13T09:58:59.134Z,4.47
2022-09-13T10:01:27.240Z,4.63
2022-09-13T10:04:05.983Z,6.93
2022-09-13T10:06:32.839Z,6.55
2022-09-13T10:09:05.062Z,9.23
2022-09-13T10:11:42.753Z,3.90
2022-09-13T10:14:27.728Z,5.50
2022-09-13T10:17:05.745Z,7.18
2022-09-13T10:19:32.573Z,6.88
2022-09-13T10:22:03.310Z,3.92
2022-09-13T10:24:30.668Z,3.58
2022-09-13T10:26:57.636Z,4.45
2022-09-13T10:29:24.193Z,4.22
2022-09-13T10:31:53.540Z,5.25
2022-09-13T10:34:22.003Z,4.32
2022-09-13T10:36:59.495Z,4.13
2022-09-13T10:39:27.187Z,3.75
2022-09-13T10:41:53.864Z,5.80
2022-09-13T10:44:28.841Z,6.53
2022-09-13T10:46:57.617Z,4.15
2022-09-13T10:49:36.160Z,3.35
2022-09-13T10:52:22.394Z,3.53
2022-09-13T10:57:48.095Z,4.68
2022-09-13T11:00:17.625Z,4.88
2022-09-13T11:03:05.683Z,5.28
2022-09-13T11:05:37.281Z,3.78
2022-09-13T11:08:24.009Z,5.93
2022-09-13T11:10:58.298Z,7.18
2022-09-13T11:13:43.031Z,5.40
2022-09-13T11:16:37.452Z,4.93
2022-09-13T11:19:22.364Z,3.97
2022-09-13T11:21:48.632Z,4.82
2022-09-13T11:24:21.372Z,3.60
2022-09-13T11:26:53.766Z,4.35
2022-09-13T11:29:21.256Z,4.05
2022-09-13T11:31:58.969Z,3.78
2022-09-13T11:34:37.995Z,4.22
2022-09-13T11:37:23.243Z,4.60
2022-09-13T11:40:01.383Z,4.03
2022-09-13T11:42:27.809Z,3.22
2022-09-13T11:45:08.300Z,4.28
2022-09-13T11:47:34.636Z,2.85
2022-09-13T11:50:33.677Z,3.80
2022-09-13T11:53:06.248Z,2.97
2022-09-13T11:55:35.403Z,5.05
2022-09-13T11:58:06.298Z,3.13
2022-09-13T12:00:41.822Z,4.18
2022-09-13T12:03:19.293Z,3.40
2022-09-13T12:05:57.925Z,3.95
2022-09-13T12:08:27.287Z,4.30
2022-09-13T12:10:56.026Z,5.00
2022-09-13T12:13:24.067Z,3.50
2022-09-13T12:15:52.924Z,3.25
2022-09-13T12:18:28.198Z,4.13
2022-09-13T12:20:56.485Z,6.30
2022-09-13T12:23:30.221Z,4.85
2022-09-13T12:26:23.052Z,4.80
2022-09-13T12:28:53.381Z,5.38
2022-09-13T12:31:24.631Z,5.63
2022-09-13T12:33:52.019Z,8.75
2022-09-13T12:36:37.344Z,5.32
2022-09-13T12:39:28.509Z,5.75
2022-09-13T12:41:54.913Z,5.55
2022-09-13T12:44:25.276Z,4.43
2022-09-13T12:47:06.148Z,4.22
2022-09-13T12:49:51.109Z,3.33
2022-09-13T12:52:30.525Z,4.10
2022-09-13T12:55:45.324Z,4.72
2022-09-13T12:58:10.927Z,3.47
2022-09-13T13:00:45.184Z,9.35
2022-09-13T13:03:14.469Z,3.85
2022-09-13T13:05:49.121Z,3.25
2022-09-13T13:08:25.437Z,4.78
2022-09-13T13:11:11.794Z,3.83
2022-09-13T13:13:39.289Z,3.80
2022-09-13T13:16:24.741Z,2.97
2022-09-13T13:18:52.238Z,4.53
2022-09-13T13:21:24.832Z,3.90
2022-09-13T13:24:10.496Z,6.03
2022-09-13T13:26:42.864Z,4.03
2022-09-13T13:29:15.497Z,2.88
2022-09-13T13:31:46.208Z,3.15
2022-09-13T13:34:16.189Z,2.75
2022-09-13T13:36:44.134Z,3.20
2022-09-13T13:39:22.861Z,4.15
2022-09-13T13:41:55.469Z,3.83
2022-09-13T13:44:22.091Z,2.85
2022-09-13T13:46:53.381Z,3.10
2022-09-13T13:49:35.501Z,2.45
2022-09-13T13:52:11.579Z,3.85
2022-09-13T13:55:10.368Z,2.58
2022-09-13T13:57:42.725Z,3.05
2022-09-13T14:00:16.769Z,4.30
2022-09-13T14:03:03.502Z,2.78
2022-09-13T14:05:59.316Z,2.58
2022-09-13T14:08:44.376Z,3.10
2022-09-13T14:11:18.698Z,3.08
2022-09-13T14:14:23.328Z,2.40
2022-09-13T14:16:56.801Z,3.88
2022-09-13T14:19:35.049Z,4.75
2022-09-13T14:22:05.724Z,3.17
2022-09-13T14:24:56.961Z,3.42
2022-09-13T14:27:25.000Z,3.47
2022-09-13T14:33:22.400Z,3.58
2022-09-13T14:35:57.266Z,3.05
2022-09-13T14:38:25.613Z,3.53
2022-09-13T14:40:53.171Z,2.67
2022-09-13T14:43:23.894Z,3.90
2022-09-13T14:45:52.763Z,2.70
2022-09-13T14:48:22.375Z,4.75
2022-09-13T14:50:50.863Z,2.10
2022-09-13T14:53:19.964Z,4.35
2022-09-13T14:55:51.705Z,2.47
2022-09-13T14:58:29.759Z,3.13
2022-09-13T15:00:59.813Z,2.58
2022-09-13T15:03:27.051Z,2.88
2022-09-13T15:05:54.742Z,2.47
2022-09-13T15:08:32.905Z,2.38
2022-09-13T15:11:03.907Z,3.00
2022-09-13T15:13:30.528Z,4.70
2022-09-13T15:15:57.659Z,5.45
2022-09-13T15:18:36.449Z,5.18
2022-09-13T15:21:07.994Z,3.05
2022-09-13T15:23:35.956Z,3.78
2022-09-13T15:26:08.391Z,6.03
2022-09-13T15:28:46.786Z,2.90
2022-09-13T15:31:20.916Z,4.95
2022-09-13T15:33:49.514Z,2.80
2022-09-13T15:36:19.332Z,2.63
2022-09-13T15:38:57.913Z,2.90
2022-09-13T15:41:28.375Z,3.88
2022-09-13T15:43:55.047Z,2.88
2022-09-13T15:46:22.780Z,2.15
2022-09-13T15:48:57.561Z,5.45
2022-09-13T15:51:24.328Z,4.80
2022-09-13T15:53:51.725Z,3.60
2022-09-13T15:56:19.606Z,3.58
2022-09-13T15:58:46.367Z,4.70
2022-09-13T16:01:13.187Z,4.05
2022-09-13T16:03:40.145Z,3.65
2022-09-13T16:06:08.948Z,5.97
2022-09-13T16:08:36.556Z,3.45
2022-09-13T16:11:15.467Z,6.40
2022-09-13T16:13:44.262Z,2.92
2022-09-13T16:16:13.539Z,4.50
2022-09-13T16:18:39.880Z,4.15
2022-09-13T16:21:06.817Z,3.13
2022-09-13T16:23:33.266Z,5.13
2022-09-13T16:26:00.035Z,7.57
2022-09-13T16:28:41.560Z,6.22
2022-09-13T16:33:54.336Z,7.68
2022-09-13T16:42:37.075Z,3.75
2022-09-13T16:45:03.711Z,3.90
2022-09-13T16:47:30.144Z,4.75
2022-09-13T16:49:56.571Z,5.90
2022-09-13T16:52:22.980Z,7.80
2022-09-13T16:54:51.207Z,6.88
2022-09-13T16:57:17.445Z,6.20
2022-09-13T16:59:43.776Z,7.82
2022-09-13T17:02:11.256Z,6.75
2022-09-13T17:04:40.287Z,6.40
2022-09-13T17:07:07.385Z,7.60
2022-09-13T17:09:34.323Z,6.10
2022-09-13T17:12:01.105Z,6.63
2022-09-13T17:14:30.270Z,7.30
2022-09-13T17:16:57.252Z,5.68
2022-09-13T17:19:31.456Z,8.70
2022-09-13T17:21:57.749Z,6.25
2022-09-13T17:24:27.116Z,6.40
2022-09-13T17:26:53.694Z,5.05
2022-09-13T17:29:20.323Z,5.43
2022-09-13T17:31:47.521Z,8.70
2022-09-13T17:34:14.351Z,6.28
2022-09-13T17:36:41.042Z,8.13
2022-09-13T17:39:07.585Z,6.25
2022-09-13T17:41:34.683Z,5.53
2022-09-13T17:44:01.062Z,11.05
2022-09-13T17:46:28.927Z,9.57
2022-09-13T17:48:56.128Z,10.52
2022-09-13T17:51:23.500Z,8.63
2022-09-13T17:53:51.188Z,5.72
2022-09-13T17:56:18.908Z,9.73
2022-09-13T17:58:45.882Z,9.90
2022-09-13T18:01:12.408Z,7.15
2022-09-13T18:03:39.400Z,8.77
2022-09-13T18:06:07.268Z,10.25
2022-09-13T18:08:34.620Z,8.27
2022-09-13T18:11:13.141Z,10.77
2022-09-13T18:13:40.915Z,8.63
2022-09-13T18:16:08.434Z,7.60
2022-09-13T18:18:36.914Z,7.50
2022-09-13T18:21:06.525Z,10.18
2022-09-13T18:23:33.788Z,9.95
2022-09-13T18:26:06.423Z,6.65
2022-09-13T18:28:35.564Z,10.25
2022-09-13T18:31:03.282Z,10.65
2022-09-13T18:33:29.607Z,8.65
2022-09-13T18:35:57.386Z,7.38
2022-09-13T18:38:24.083Z,10.73
2022-09-13T18:41:00.344Z,8.68
2022-09-13T18:43:26.937Z,8.27
2022-09-13T18:45:57.245Z,13.18
2022-09-13T18:48:24.072Z,10.10
2022-09-13T18:50:50.659Z,9.93
2022-09-13T18:53:16.931Z,12.95
2022-09-13T18:55:43.824Z,10.15
2022-09-13T18:58:13.604Z,7.55
2022-09-13T19:00:40.669Z,10.20
2022-09-13T19:03:12.702Z,11.57
2022-09-13T19:05:39.780Z,8.88
2022-09-13T19:08:07.997Z,9.77
2022-09-13T19:10:35.117Z,11.77
2022-09-13T19:13:02.553Z,10.30
2022-09-13T19:15:29.170Z,8.98
2022-09-13T19:17:55.562Z,10.75
2022-09-13T19:20:22.888Z,12.80
2022-09-13T19:22:49.887Z,7.22
2022-09-13T19:25:16.838Z,7.80
2022-09-13T19:27:43.304Z,12.07
2022-09-13T19:30:10.170Z,9.75
2022-09-13T19:32:36.541Z,10.43
2022-09-13T19:35:02.933Z,9.82
2022-09-13T19:37:29.317Z,10.68
2022-09-13T19:39:55.944Z,8.88
2022-09-13T19:42:22.208Z,9.88
2022-09-13T19:44:48.496Z,9.77
2022-09-13T19:48:02.048Z,19.67
2022-09-13T19:50:01.285Z,8.85
2022-09-13T19:52:27.586Z,9.00
2022-09-13T19:54:56.431Z,8.45
2022-09-13T19:57:22.801Z,8.80
2022-09-13T19:59:49.049Z,8.10
2022-09-13T20:02:15.428Z,8.23
2022-09-13T20:04:41.967Z,9.68
2022-09-13T20:07:12.093Z,10.65
2022-09-13T20:09:38.710Z,9.77
2022-09-13T20:12:07.229Z,7.40
2022-09-13T20:14:34.157Z,8.57
2022-09-13T20:17:04.140Z,8.63
2022-09-13T20:19:41.607Z,8.63
2022-09-13T20:22:09.979Z,8.95
2022-09-13T20:24:36.361Z,7.35
2022-09-13T20:27:02.686Z,9.45
2022-09-13T20:29:28.966Z,11.27
2022-09-13T20:31:55.614Z,11.02
2022-09-13T20:34:21.958Z,8.60
2022-09-13T20:36:48.416Z,10.70
2022-09-13T20:39:17.862Z,9.05
2022-09-13T20:41:44.963Z,7.50
2022-09-13T20:44:11.619Z,7.43
2022-09-13T20:46:40.221Z,7.45
2022-09-13T20:49:08.442Z,7.82
2022-09-13T20:51:34.969Z,7.15
2022-09-13T20:54:01.364Z,9.80
2022-09-13T20:56:28.689Z,8.23
2022-09-13T20:58:57.626Z,7.75
2022-09-13T21:01:24.170Z,8.45
2022-09-13T21:03:51.740Z,8.00
2022-09-13T21:06:19.326Z,10.38
2022-09-13T21:08:49.330Z,9.95
2022-09-13T21:11:17.154Z,10.32
2022-09-13T21:13:47.505Z,6.78
2022-09-13T21:16:15.123Z,10.30
2022-09-13T21:18:41.969Z,10.70
2022-09-13T21:21:08.975Z,8.45
2022-09-13T21:23:37.379Z,8.10
2022-09-13T21:26:05.651Z,11.20
2022-09-13T21:28:33.009Z,8.43
2022-09-13T21:31:00.398Z,8.35
2022-09-13T21:33:27.209Z,5.70
2022-09-13T21:35:57.541Z,9.70
2022-09-13T21:38:28.143Z,7.70
2022-09-13T21:40:55.574Z,7.45
2022-09-13T21:43:21.965Z,12.75
2022-09-13T21:45:48.267Z,7.28
2022-09-13T21:48:14.544Z,6.47
2022-09-13T21:50:40.897Z,7.90
2022-09-13T21:53:07.120Z,8.60
2022-09-13T21:55:39.758Z,5.50
2022-09-13T21:58:09.022Z,7.40
2022-09-13T22:00:38.788Z,6.85
2022-09-13T22:03:07.748Z,4.78
2022-09-13T22:05:34.026Z,5.13
2022-09-13T22:08:00.257Z,8.05
2022-09-13T22:10:26.508Z,5.35
2022-09-13T22:12:52.717Z,5.57
2022-09-13T22:15:19.011Z,4.57
2022-09-13T22:17:45.253Z,5.22
2022-09-13T22:20:11.520Z,8.68
2022-09-13T22:22:37.778Z,7.45
2022-09-13T22:25:04.154Z,7.38
2022-09-13T22:27:30.411Z,4.53
2022-09-13T22:29:56.773Z,5.22
2022-09-13T22:32:24.516Z,7.60
2022-09-13T22:34:52.821Z,5.15
2022-09-13T22:37:19.078Z,7.57
2022-09-13T22:39:45.518Z,5.68
2022-09-13T22:42:11.983Z,4.80
2022-09-13T22:44:38.404Z,5.88
2022-09-13T22:47:04.691Z,5.78
2022-09-13T22:49:30.936Z,6.55
2022-09-13T22:51:57.343Z,4.82
2022-09-13T22:54:24.527Z,5.25
2022-09-13T22:56:50.765Z,4.07
2022-09-13T22:59:18.189Z,3.67
2022-09-13T23:01:45.062Z,4.60
2022-09-13T23:04:11.607Z,5.55
2022-09-13T23:06:37.980Z,6.85
2022-09-13T23:09:05.364Z,4.53
2022-09-13T23:11:38.824Z,5.30
2022-09-13T23:14:06.589Z,6.82
2022-09-13T23:16:34.917Z,4.55
2022-09-13T23:19:01.555Z,4.40
2022-09-13T23:21:29.280Z,4.70
2022-09-13T23:23:56.063Z,8.15
2022-09-13T23:26:23.519Z,5.47
2022-09-13T23:28:57.066Z,5.00
2022-09-13T23:31:24.811Z,4.97
2022-09-13T23:33:52.362Z,5.68
2022-09-13T23:36:23.999Z,5.88
2022-09-13T23:38:51.760Z,7.85
2022-09-13T23:41:18.806Z,5.13
2022-09-13T23:43:45.535Z,4.15
2022-09-13T23:46:11.876Z,3.92
2022-09-13T23:48:38.455Z,4.50
2022-09-13T23:51:06.383Z,7.53
2022-09-13T23:53:33.280Z,5.22
2022-09-13T23:55:59.595Z,4.70
2022-09-13T23:58:26.247Z,4.90
